BOX453 KJFK-EDDF
Flight info
| Callsign | BOX453 |
|---|---|
| Flight time | N/A |
| Altitude | 31000 |
| Route | MERIT DCT HFD DCT PUT DCT TOPPS DCT NEEKO/M085F320 DCT 54N050W 55N040W 55N030W 54N020W DCT MALOT DCT GISTI/N0495F330 DCT LONDU DCT WTD DCT ENJEX DCT ADHAV DCT AXNEF DCT ZIPWE DCT OZZIL DCT SAWPE Q63 CPT UL9 BIG L607 KONAN UL607 SPI T180 NIVNU T847 IMCOM IMCOM1D |
| Aircraft | B77L/H-SDE1E2E3FGHIJ2J3J4J5M1RWXY/LB1D1 |
Departure
| Time | 2026-04-30 18:12 |
|---|---|
| Airport | John F. Kennedy International Airport (KJFK) |
Arrival
| Time | N/A |
|---|---|
| Airport | Frankfurt Main Airport (EDDF) |
| Time | Latitude | Longitude | Altitude | Speed | Heading |
|---|---|---|---|---|---|
| 2026-04-30 17:41 | 40.65450 | -73.79667 | 20 ft | 0 kts | 89° |
| 2026-04-30 17:55 | 40.65485 | -73.79770 | 24 ft | 4 kts | 161° |
| 2026-04-30 17:56 | 40.65505 | -73.79775 | 22 ft | 0 kts | 180° |
| 2026-04-30 18:02 | 40.65477 | -73.79775 | 22 ft | 7 kts | 180° |
| 2026-04-30 18:02 | 40.65331 | -73.79778 | 20 ft | 8 kts | 183° |
| 2026-04-30 18:03 | 40.65168 | -73.79681 | 20 ft | 12 kts | 151° |
| 2026-04-30 18:04 | 40.65156 | -73.79429 | 21 ft | 12 kts | 60° |
| 2026-04-30 18:05 | 40.65142 | -73.78930 | 20 ft | 22 kts | 100° |
| 2026-04-30 18:06 | 40.65187 | -73.78203 | 20 ft | 20 kts | 121° |
| 2026-04-30 18:07 | 40.65165 | -73.77963 | 20 ft | 0 kts | 30° |
| 2026-04-30 18:08 | 40.65305 | -73.77856 | 24 ft | 12 kts | 30° |
| 2026-04-30 18:09 | 40.65126 | -73.77306 | 20 ft | 20 kts | 121° |
| 2026-04-30 18:10 | 40.64895 | -73.76694 | 22 ft | 18 kts | 49° |
| 2026-04-30 18:11 | 40.65090 | -73.76459 | 22 ft | 6 kts | 104° |
| 2026-04-30 18:11 | 40.64889 | -73.76458 | 19 ft | 53 kts | 211° |
| 2026-04-30 18:12 | 40.62378 | -73.78442 | 1243 ft | 179 kts | 214° |
| 2026-04-30 18:13 | 40.60071 | -73.80312 | 2175 ft | 215 kts | 213° |
| 2026-04-30 18:13 | 40.55847 | -73.83735 | 3505 ft | 254 kts | 213° |
| 2026-04-30 18:14 | 40.52770 | -73.86228 | 4743 ft | 262 kts | 213° |
| 2026-04-30 18:15 | 40.48018 | -73.90047 | 5010 ft | 267 kts | 213° |
| 2026-04-30 18:15 | 40.42900 | -73.91313 | 5799 ft | 276 kts | 152° |
| 2026-04-30 18:16 | 40.40675 | -73.87236 | 6993 ft | 292 kts | 99° |
| 2026-04-30 18:16 | 40.41064 | -73.81861 | 8128 ft | 303 kts | 78° |
| 2026-04-30 18:17 | 40.41510 | -73.79140 | 8691 ft | 308 kts | 78° |
| 2026-04-30 18:17 | 40.41989 | -73.76378 | 9284 ft | 313 kts | 78° |
| 2026-04-30 18:17 | 40.43003 | -73.70724 | 10330 ft | 326 kts | 78° |
| 2026-04-30 18:18 | 40.43548 | -73.67742 | 10493 ft | 346 kts | 77° |
| 2026-04-30 18:18 | 40.44128 | -73.64579 | 10661 ft | 366 kts | 77° |
| 2026-04-30 18:18 | 40.44753 | -73.61254 | 10809 ft | 384 kts | 74° |
| 2026-04-30 18:18 | 40.45851 | -73.57969 | 10986 ft | 401 kts | 55° |
| 2026-04-30 18:19 | 40.47751 | -73.55266 | 11414 ft | 408 kts | 35° |
| 2026-04-30 18:19 | 40.50221 | -73.53469 | 11948 ft | 405 kts | 16° |
| 2026-04-30 18:19 | 40.52909 | -73.52277 | 12413 ft | 412 kts | 14° |
| 2026-04-30 18:19 | 40.55653 | -73.51103 | 13043 ft | 417 kts | 13° |
| 2026-04-30 18:20 | 40.58429 | -73.49912 | 13715 ft | 421 kts | 13° |
| 2026-04-30 18:20 | 40.61228 | -73.48697 | 14287 ft | 425 kts | 14° |
| 2026-04-30 18:20 | 40.64037 | -73.47461 | 14897 ft | 428 kts | 14° |
| 2026-04-30 18:20 | 40.66838 | -73.46215 | 15515 ft | 431 kts | 14° |
| 2026-04-30 18:21 | 40.69689 | -73.44937 | 16095 ft | 435 kts | 14° |
| 2026-04-30 18:21 | 40.72564 | -73.43643 | 16689 ft | 438 kts | 14° |
| 2026-04-30 18:21 | 40.75473 | -73.42330 | 17062 ft | 444 kts | 14° |
| 2026-04-30 18:21 | 40.78401 | -73.41007 | 17004 ft | 446 kts | 15° |
| 2026-04-30 18:22 | 40.81329 | -73.39679 | 17012 ft | 443 kts | 15° |
| 2026-04-30 18:22 | 40.87143 | -73.37040 | 17013 ft | 442 kts | 15° |
| 2026-04-30 18:22 | 40.90041 | -73.35727 | 17430 ft | 447 kts | 15° |
| 2026-04-30 18:23 | 40.92987 | -73.34391 | 18065 ft | 449 kts | 15° |
| 2026-04-30 18:23 | 40.95947 | -73.33046 | 18582 ft | 452 kts | 15° |
| 2026-04-30 18:23 | 40.98936 | -73.31687 | 19086 ft | 455 kts | 15° |
| 2026-04-30 18:23 | 41.01951 | -73.30320 | 19540 ft | 459 kts | 14° |
| 2026-04-30 18:24 | 41.08111 | -73.27673 | 20419 ft | 466 kts | 14° |
| 2026-04-30 18:24 | 41.11186 | -73.26314 | 21062 ft | 465 kts | 14° |
| 2026-04-30 18:24 | 41.14257 | -73.24917 | 21573 ft | 468 kts | 15° |
| 2026-04-30 18:25 | 41.17353 | -73.23481 | 22007 ft | 473 kts | 15° |
| 2026-04-30 18:25 | 41.23595 | -73.20554 | 22906 ft | 479 kts | 15° |
| 2026-04-30 18:25 | 41.26766 | -73.19066 | 23385 ft | 482 kts | 15° |
| 2026-04-30 18:26 | 41.32918 | -73.15389 | 24008 ft | 496 kts | 34° |
| 2026-04-30 18:26 | 41.35529 | -73.12343 | 24376 ft | 502 kts | 46° |
| 2026-04-30 18:26 | 41.37702 | -73.08697 | 24807 ft | 503 kts | 57° |
| 2026-04-30 18:27 | 41.41378 | -73.00772 | 25447 ft | 510 kts | 58° |
| 2026-04-30 18:27 | 41.43247 | -72.96733 | 25810 ft | 512 kts | 58° |
| 2026-04-30 18:28 | 41.47027 | -72.88648 | 26589 ft | 516 kts | 57° |
| 2026-04-30 18:28 | 41.48930 | -72.84610 | 26966 ft | 518 kts | 57° |
| 2026-04-30 18:28 | 41.52797 | -72.76421 | 27678 ft | 522 kts | 57° |
| 2026-04-30 18:29 | 41.54732 | -72.72317 | 28025 ft | 524 kts | 57° |
| 2026-04-30 18:29 | 41.60565 | -72.59901 | 28936 ft | 531 kts | 57° |
| 2026-04-30 18:30 | 41.64497 | -72.51498 | 29524 ft | 535 kts | 57° |
| 2026-04-30 18:30 | 41.68453 | -72.43020 | 30073 ft | 537 kts | 57° |
| 2026-04-30 18:31 | 41.70425 | -72.38782 | 30384 ft | 536 kts | 58° |
| 2026-04-30 18:31 | 41.74373 | -72.30287 | 30751 ft | 539 kts | 58° |
| 2026-04-30 18:32 | 41.80335 | -72.17410 | 30806 ft | 544 kts | 58° |
| 2026-04-30 18:33 | 41.86275 | -72.04523 | 30806 ft | 543 kts | 58° |
| 2026-04-30 18:33 | 41.92166 | -71.91694 | 30810 ft | 541 kts | 58° |
| 2026-04-30 18:34 | 41.99280 | -71.80024 | 30813 ft | 537 kts | 41° |
| 2026-04-30 18:35 | 42.04979 | -71.73516 | 30815 ft | 536 kts | 38° |
| 2026-04-30 18:35 | 42.10696 | -71.67198 | 30809 ft | 535 kts | 38° |
| 2026-04-30 18:36 | 42.19272 | -71.57575 | 30808 ft | 535 kts | 38° |
| 2026-04-30 18:37 | 42.27808 | -71.47867 | 30819 ft | 535 kts | 39° |
| 2026-04-30 18:37 | 42.33512 | -71.41357 | 30812 ft | 534 kts | 39° |
| 2026-04-30 18:38 | 42.39151 | -71.34913 | 30804 ft | 534 kts | 39° |
| 2026-04-30 18:38 | 42.44818 | -71.28422 | 30805 ft | 534 kts | 39° |
| 2026-04-30 18:39 | 42.50485 | -71.21914 | 30808 ft | 533 kts | 39° |
| 2026-04-30 18:39 | 42.56141 | -71.15404 | 30808 ft | 533 kts | 39° |
| 2026-04-30 18:40 | 42.61789 | -71.08886 | 30833 ft | 533 kts | 39° |
| 2026-04-30 18:40 | 42.67434 | -71.02357 | 30829 ft | 532 kts | 39° |
| 2026-04-30 18:41 | 42.73063 | -70.95829 | 30831 ft | 532 kts | 40° |
| 2026-04-30 18:41 | 42.78690 | -70.89287 | 30823 ft | 531 kts | 40° |
| 2026-04-30 18:42 | 42.84307 | -70.82741 | 30805 ft | 531 kts | 40° |
| 2026-04-30 18:42 | 42.92670 | -70.72964 | 30800 ft | 529 kts | 40° |
| 2026-04-30 18:45 | 43.23244 | -70.36909 | 30817 ft | 526 kts | 42° |
| 2026-04-30 18:46 | 43.27999 | -70.31256 | 30828 ft | 527 kts | 42° |
| 2026-04-30 18:46 | 43.33589 | -70.24597 | 30805 ft | 527 kts | 42° |
| 2026-04-30 18:47 | 43.39104 | -70.18010 | 30812 ft | 525 kts | 42° |
| 2026-04-30 18:47 | 43.44608 | -70.11419 | 30822 ft | 524 kts | 43° |
| 2026-04-30 18:48 | 43.50101 | -70.04825 | 30823 ft | 523 kts | 43° |
| 2026-04-30 18:48 | 43.55589 | -69.98219 | 30828 ft | 524 kts | 43° |
| 2026-04-30 18:49 | 43.60151 | -69.92717 | 30825 ft | 524 kts | 43° |
| 2026-04-30 18:49 | 43.65639 | -69.86081 | 30835 ft | 525 kts | 43° |
| 2026-04-30 18:50 | 43.71134 | -69.79422 | 30841 ft | 525 kts | 43° |
| 2026-04-30 18:50 | 43.76638 | -69.72733 | 30840 ft | 526 kts | 43° |
| 2026-04-30 18:51 | 43.82100 | -69.66079 | 30842 ft | 526 kts | 43° |
| 2026-04-30 18:51 | 43.87593 | -69.59371 | 30840 ft | 526 kts | 43° |
| 2026-04-30 18:52 | 43.93088 | -69.52642 | 30844 ft | 527 kts | 43° |
| 2026-04-30 18:52 | 43.98585 | -69.45894 | 30839 ft | 527 kts | 43° |
| 2026-04-30 18:53 | 44.04082 | -69.39127 | 30853 ft | 527 kts | 44° |
| 2026-04-30 18:53 | 44.09569 | -69.32356 | 30851 ft | 527 kts | 44° |
| 2026-04-30 18:54 | 44.15046 | -69.25581 | 30854 ft | 526 kts | 44° |
| 2026-04-30 18:54 | 44.20468 | -69.18857 | 30858 ft | 525 kts | 44° |
| 2026-04-30 18:55 | 44.25915 | -69.12082 | 30855 ft | 523 kts | 44° |
| 2026-04-30 18:55 | 44.34045 | -69.01938 | 30869 ft | 522 kts | 44° |
| 2026-04-30 18:56 | 44.41835 | -68.92183 | 30867 ft | 521 kts | 44° |
| 2026-04-30 18:57 | 44.49863 | -68.82091 | 30871 ft | 520 kts | 44° |
| 2026-04-30 18:57 | 44.55221 | -68.75332 | 30880 ft | 521 kts | 44° |
| 2026-04-30 18:58 | 44.63297 | -68.65114 | 30878 ft | 522 kts | 44° |
| 2026-04-30 18:59 | 44.71413 | -68.54804 | 30873 ft | 524 kts | 44° |
| 2026-04-30 19:00 | 44.82209 | -68.41028 | 30877 ft | 526 kts | 44° |
| 2026-04-30 19:01 | 44.93042 | -68.27130 | 30886 ft | 526 kts | 44° |
| 2026-04-30 19:02 | 45.01167 | -68.16658 | 30884 ft | 526 kts | 45° |
| 2026-04-30 19:03 | 45.11852 | -68.02825 | 30897 ft | 519 kts | 45° |
| 2026-04-30 19:04 | 45.22476 | -67.88990 | 30901 ft | 517 kts | 46° |
| 2026-04-30 19:05 | 45.33060 | -67.75138 | 30899 ft | 517 kts | 46° |
| 2026-04-30 19:06 | 45.43499 | -67.61061 | 30898 ft | 517 kts | 47° |
| 2026-04-30 19:06 | 45.51244 | -67.50453 | 30897 ft | 517 kts | 46° |
| 2026-04-30 19:07 | 45.59029 | -67.39792 | 30909 ft | 517 kts | 46° |
| 2026-04-30 19:08 | 45.69403 | -67.25526 | 30910 ft | 517 kts | 46° |
| 2026-04-30 19:09 | 45.77143 | -67.14829 | 30914 ft | 517 kts | 46° |
| 2026-04-30 19:09 | 45.82326 | -67.07641 | 30913 ft | 518 kts | 46° |
| 2026-04-30 19:10 | 45.92670 | -66.93238 | 30925 ft | 518 kts | 47° |
| 2026-04-30 19:11 | 46.00430 | -66.82381 | 30928 ft | 519 kts | 47° |
| 2026-04-30 19:12 | 46.05599 | -66.75123 | 30933 ft | 519 kts | 47° |
| 2026-04-30 19:12 | 46.10758 | -66.67861 | 30928 ft | 519 kts | 47° |
| 2026-04-30 19:13 | 46.21024 | -66.53347 | 30942 ft | 518 kts | 46° |
| 2026-04-30 19:14 | 46.26169 | -66.46044 | 30944 ft | 518 kts | 46° |
| 2026-04-30 19:14 | 46.31299 | -66.38741 | 30944 ft | 518 kts | 46° |
| 2026-04-30 19:15 | 46.36437 | -66.31406 | 30949 ft | 518 kts | 46° |
| 2026-04-30 19:15 | 46.44131 | -66.20385 | 30950 ft | 518 kts | 46° |
| 2026-04-30 19:16 | 46.49254 | -66.13020 | 30959 ft | 519 kts | 46° |
| 2026-04-30 19:17 | 46.56913 | -66.01970 | 30963 ft | 520 kts | 46° |
| 2026-04-30 19:17 | 46.64642 | -65.90774 | 30966 ft | 521 kts | 46° |
| 2026-04-30 19:18 | 46.72316 | -65.79611 | 30974 ft | 522 kts | 46° |
| 2026-04-30 19:19 | 46.77444 | -65.72123 | 30985 ft | 522 kts | 46° |
| 2026-04-30 19:19 | 46.85134 | -65.60853 | 30993 ft | 521 kts | 46° |
| 2026-04-30 19:20 | 46.90248 | -65.53333 | 31007 ft | 520 kts | 46° |
| 2026-04-30 19:21 | 46.97895 | -65.42050 | 31014 ft | 519 kts | 46° |
| 2026-04-30 19:22 | 47.07989 | -65.27078 | 31028 ft | 517 kts | 46° |
| 2026-04-30 19:23 | 47.23065 | -65.04554 | 31048 ft | 513 kts | 45° |
| 2026-04-30 19:24 | 47.30553 | -64.93295 | 31052 ft | 512 kts | 45° |
| 2026-04-30 19:25 | 47.42999 | -64.74474 | 31481 ft | 513 kts | 45° |
| 2026-04-30 19:26 | 47.47972 | -64.66915 | 32058 ft | 511 kts | 45° |
| 2026-04-30 19:26 | 47.52928 | -64.59361 | 32556 ft | 511 kts | 45° |
| 2026-04-30 19:26 | 47.55367 | -64.55634 | 32806 ft | 510 kts | 45° |
| 2026-04-30 19:27 | 47.60306 | -64.48073 | 33047 ft | 511 kts | 45° |
| 2026-04-30 19:28 | 47.67694 | -64.36723 | 33082 ft | 507 kts | 45° |
| 2026-04-30 19:29 | 47.77432 | -64.21684 | 33088 ft | 503 kts | 45° |
| 2026-04-30 19:30 | 47.87104 | -64.06662 | 33100 ft | 502 kts | 45° |
| 2026-04-30 19:31 | 47.96752 | -63.91593 | 33104 ft | 504 kts | 45° |
| 2026-04-30 19:31 | 48.03994 | -63.80220 | 33109 ft | 504 kts | 45° |
| 2026-04-30 19:32 | 48.08828 | -63.72603 | 33115 ft | 504 kts | 46° |
| 2026-04-30 19:32 | 48.13653 | -63.64978 | 33117 ft | 504 kts | 46° |
| 2026-04-30 19:33 | 48.18440 | -63.57390 | 33119 ft | 504 kts | 46° |
| 2026-04-30 19:33 | 48.23248 | -63.49748 | 33126 ft | 504 kts | 46° |
| 2026-04-30 19:34 | 48.28048 | -63.42095 | 33129 ft | 503 kts | 46° |
| 2026-04-30 19:35 | 48.34431 | -63.31884 | 33125 ft | 503 kts | 47° |
| 2026-04-30 19:35 | 48.39221 | -63.24195 | 33141 ft | 503 kts | 47° |
| 2026-04-30 19:36 | 48.44012 | -63.16481 | 33143 ft | 504 kts | 47° |
| 2026-04-30 19:36 | 48.51194 | -63.04875 | 33151 ft | 505 kts | 47° |
| 2026-04-30 19:37 | 48.55984 | -62.97106 | 33149 ft | 506 kts | 48° |
| 2026-04-30 19:37 | 48.60769 | -62.89322 | 33153 ft | 506 kts | 48° |
| 2026-04-30 19:38 | 48.65558 | -62.81508 | 33153 ft | 505 kts | 48° |
| 2026-04-30 19:38 | 48.70332 | -62.73693 | 33157 ft | 505 kts | 49° |
| 2026-04-30 19:39 | 48.75063 | -62.65927 | 33163 ft | 505 kts | 49° |
| 2026-04-30 19:39 | 48.79823 | -62.58090 | 33165 ft | 505 kts | 49° |
| 2026-04-30 19:40 | 48.84575 | -62.50242 | 33170 ft | 504 kts | 49° |
| 2026-04-30 19:40 | 48.89321 | -62.42381 | 33175 ft | 504 kts | 49° |
| 2026-04-30 19:41 | 48.94059 | -62.34508 | 33176 ft | 505 kts | 49° |
| 2026-04-30 19:41 | 48.98803 | -62.26602 | 33181 ft | 505 kts | 50° |
| 2026-04-30 19:42 | 49.03514 | -62.18726 | 33186 ft | 506 kts | 50° |
| 2026-04-30 19:42 | 49.08244 | -62.10795 | 33192 ft | 506 kts | 50° |
| 2026-04-30 19:43 | 49.12981 | -62.02828 | 33191 ft | 507 kts | 50° |
| 2026-04-30 19:44 | 49.20092 | -61.90823 | 33196 ft | 508 kts | 50° |
| 2026-04-30 19:44 | 49.24820 | -61.82809 | 33199 ft | 508 kts | 50° |
| 2026-04-30 19:45 | 49.29561 | -61.74749 | 33203 ft | 509 kts | 50° |
| 2026-04-30 19:45 | 49.34293 | -61.66680 | 33203 ft | 509 kts | 51° |
| 2026-04-30 19:46 | 49.39027 | -61.58581 | 33204 ft | 510 kts | 51° |
| 2026-04-30 19:46 | 49.43751 | -61.50474 | 33208 ft | 510 kts | 51° |
| 2026-04-30 19:47 | 49.48483 | -61.42328 | 33211 ft | 511 kts | 51° |
| 2026-04-30 19:47 | 49.53182 | -61.34213 | 33214 ft | 511 kts | 51° |
| 2026-04-30 19:48 | 49.57911 | -61.26021 | 33214 ft | 512 kts | 51° |
| 2026-04-30 19:48 | 49.62643 | -61.17798 | 33212 ft | 512 kts | 51° |
| 2026-04-30 19:49 | 49.67372 | -61.09554 | 33236 ft | 513 kts | 51° |
| 2026-04-30 19:49 | 49.74466 | -60.97138 | 33228 ft | 514 kts | 51° |
| 2026-04-30 19:50 | 49.79160 | -60.88890 | 33234 ft | 514 kts | 51° |
| 2026-04-30 19:50 | 49.83888 | -60.80555 | 33235 ft | 514 kts | 52° |
| 2026-04-30 19:51 | 49.88614 | -60.72196 | 33236 ft | 515 kts | 52° |
| 2026-04-30 19:51 | 49.93333 | -60.63823 | 33239 ft | 515 kts | 52° |
| 2026-04-30 19:52 | 49.98046 | -60.55433 | 33242 ft | 515 kts | 52° |
| 2026-04-30 19:52 | 50.02726 | -60.47077 | 33240 ft | 516 kts | 52° |
| 2026-04-30 19:53 | 50.07432 | -60.38644 | 33245 ft | 516 kts | 52° |
| 2026-04-30 19:53 | 50.12141 | -60.30181 | 33244 ft | 516 kts | 52° |
| 2026-04-30 19:54 | 50.16841 | -60.21704 | 33246 ft | 516 kts | 52° |
| 2026-04-30 19:54 | 50.21532 | -60.13216 | 33252 ft | 517 kts | 52° |
| 2026-04-30 19:55 | 50.26227 | -60.04693 | 33250 ft | 517 kts | 52° |
| 2026-04-30 19:55 | 50.30891 | -59.96200 | 33244 ft | 518 kts | 52° |
| 2026-04-30 19:56 | 50.35581 | -59.87630 | 33253 ft | 518 kts | 52° |
| 2026-04-30 19:56 | 50.40241 | -59.79087 | 33248 ft | 518 kts | 52° |
| 2026-04-30 19:57 | 50.44935 | -59.70452 | 33244 ft | 518 kts | 52° |
| 2026-04-30 19:57 | 50.49609 | -59.61825 | 33251 ft | 518 kts | 52° |
| 2026-04-30 19:58 | 50.54281 | -59.53175 | 33247 ft | 518 kts | 52° |
| 2026-04-30 19:58 | 50.58913 | -59.44568 | 33249 ft | 518 kts | 52° |
| 2026-04-30 19:59 | 50.63560 | -59.35904 | 33249 ft | 518 kts | 52° |
| 2026-04-30 20:00 | 50.70536 | -59.22845 | 33251 ft | 518 kts | 52° |
| 2026-04-30 20:00 | 50.75171 | -59.14133 | 33253 ft | 519 kts | 52° |
| 2026-04-30 20:01 | 50.82124 | -59.01002 | 33257 ft | 520 kts | 52° |
| 2026-04-30 20:01 | 50.86760 | -58.92214 | 33246 ft | 520 kts | 52° |
| 2026-04-30 20:02 | 50.93709 | -58.78982 | 33252 ft | 520 kts | 52° |
| 2026-04-30 20:03 | 51.00611 | -58.65772 | 33253 ft | 521 kts | 52° |
| 2026-04-30 20:03 | 51.05236 | -58.56881 | 33251 ft | 521 kts | 52° |
| 2026-04-30 20:04 | 51.09846 | -58.47989 | 33244 ft | 521 kts | 52° |
| 2026-04-30 20:05 | 51.16732 | -58.34649 | 33248 ft | 521 kts | 52° |
| 2026-04-30 20:05 | 51.23613 | -58.21251 | 33245 ft | 521 kts | 53° |
| 2026-04-30 20:06 | 51.28208 | -58.12263 | 33243 ft | 521 kts | 53° |
| 2026-04-30 20:06 | 51.32784 | -58.03282 | 33250 ft | 521 kts | 53° |
| 2026-04-30 20:07 | 51.37359 | -57.94271 | 33246 ft | 521 kts | 53° |
| 2026-04-30 20:08 | 51.44210 | -57.80720 | 33245 ft | 521 kts | 53° |
| 2026-04-30 20:08 | 51.48739 | -57.71720 | 33251 ft | 521 kts | 53° |
| 2026-04-30 20:09 | 51.53290 | -57.62647 | 33242 ft | 522 kts | 53° |
| 2026-04-30 20:09 | 51.60107 | -57.48993 | 33243 ft | 522 kts | 53° |
| 2026-04-30 20:10 | 51.66905 | -57.35305 | 33251 ft | 521 kts | 53° |
| 2026-04-30 20:11 | 51.73675 | -57.21601 | 33245 ft | 521 kts | 53° |
| 2026-04-30 20:11 | 51.78171 | -57.12461 | 33244 ft | 521 kts | 53° |
| 2026-04-30 20:12 | 51.84915 | -56.98685 | 33238 ft | 521 kts | 53° |
| 2026-04-30 20:13 | 51.89400 | -56.89482 | 33238 ft | 521 kts | 53° |
| 2026-04-30 20:13 | 51.93875 | -56.80268 | 33234 ft | 521 kts | 53° |
| 2026-04-30 20:14 | 51.98348 | -56.71025 | 33238 ft | 520 kts | 53° |
| 2026-04-30 20:14 | 52.02810 | -56.61772 | 33230 ft | 521 kts | 53° |
| 2026-04-30 20:15 | 52.07246 | -56.52538 | 33231 ft | 521 kts | 53° |
| 2026-04-30 20:15 | 52.11696 | -56.43241 | 33229 ft | 521 kts | 53° |
| 2026-04-30 20:16 | 52.16139 | -56.33927 | 33227 ft | 521 kts | 53° |
| 2026-04-30 20:16 | 52.20577 | -56.24586 | 33230 ft | 521 kts | 53° |
| 2026-04-30 20:17 | 52.25001 | -56.15242 | 33221 ft | 521 kts | 53° |
| 2026-04-30 20:17 | 52.29427 | -56.05859 | 33230 ft | 521 kts | 53° |
| 2026-04-30 20:18 | 52.33827 | -55.96497 | 33250 ft | 520 kts | 53° |
| 2026-04-30 20:18 | 52.38226 | -55.87099 | 33233 ft | 520 kts | 54° |
| 2026-04-30 20:19 | 52.41500 | -55.78857 | 33228 ft | 517 kts | 64° |
| 2026-04-30 20:19 | 52.45249 | -55.66609 | 33226 ft | 516 kts | 65° |
| 2026-04-30 20:20 | 52.48418 | -55.56045 | 33242 ft | 516 kts | 65° |
| 2026-04-30 20:20 | 52.51076 | -55.47265 | 33244 ft | 516 kts | 65° |
| 2026-04-30 20:21 | 52.54281 | -55.36730 | 33245 ft | 515 kts | 65° |
| 2026-04-30 20:21 | 52.57483 | -55.26186 | 33247 ft | 515 kts | 65° |
| 2026-04-30 20:22 | 52.60679 | -55.15609 | 33250 ft | 515 kts | 65° |
| 2026-04-30 20:22 | 52.63857 | -55.05038 | 33255 ft | 515 kts | 65° |
| 2026-04-30 20:23 | 52.67029 | -54.94437 | 33260 ft | 515 kts | 65° |
| 2026-04-30 20:23 | 52.70188 | -54.83834 | 33258 ft | 515 kts | 65° |
| 2026-04-30 20:24 | 52.73323 | -54.73266 | 33265 ft | 516 kts | 65° |
| 2026-04-30 20:24 | 52.76462 | -54.62635 | 33262 ft | 516 kts | 65° |
| 2026-04-30 20:25 | 52.81167 | -54.46613 | 33271 ft | 516 kts | 65° |
| 2026-04-30 20:26 | 52.85850 | -54.30555 | 33276 ft | 516 kts | 66° |
| 2026-04-30 20:26 | 52.90485 | -54.14557 | 33278 ft | 516 kts | 66° |
| 2026-04-30 20:27 | 52.96659 | -53.93075 | 33286 ft | 515 kts | 66° |
| 2026-04-30 20:28 | 53.02790 | -53.71544 | 33289 ft | 515 kts | 66° |
| 2026-04-30 20:30 | 53.10371 | -53.44646 | 33293 ft | 515 kts | 66° |
| 2026-04-30 20:31 | 53.19407 | -53.12176 | 33301 ft | 515 kts | 66° |